Terminal Aerodrome Forecast
Issued by NWS Portland, ME

Home | Current Version | Previous Version | Text Only | Print | Product List | Glossary On
Versions: 1 2 3 4 5 6 7 8 9 10 11 12 13 14 15 16 17 18 19 20 21 22 23 24 25 26 27 28 29
929
FTUS41 KGYX 241037 AAC
TAFCON
TAF AMD
KCON 241037Z 2411/2506 00000KT 1/4SM FZFG BKN001 BKN029
     FM241200 30008KT P6SM SCT250=

USA.gov is the U.S. government's official web portal to all federal, state and local government web resources and services.